USTRANSCOM 7653


RJTY
Yokota AFB
Fussa, JP
PGUM
Guam International Airport
Guam, GU

Activity Log

Date Flight Route Aircraft Duration
07/19/2019 CMB853 XAC B586 UNZ B752 3h 39m

Route Details

Aircraft Information
Primary: Boeing 757-200SF
Backup: Not Available
Route Data
Distance: 1364nm
Sched. Duration: 3h 29m
Avg. Duration: 3h 39m (+9m)
Times Flown: 1
Recm'd Route: XAC B586 UNZ
Planned Altitude: 35,000ft
Origin Wx: RJTY 281156Z AUTO 00000KT 10SM FEW120 07/00 A3022 RMK AO2 SLP242 T00721005 10111 20066 53001 FZRANO $
Dest. Wx: PGUM 281154Z 06010KT 10SM CLR 25/21 A2992 RMK AO2 SLP124 T02500206 10289 20250 51014
Notes: USTRANSCOM CONTRACT FLIGHT

Financial History
Total Freight: 57,843lbs
Average Load: 57,843lbs/flt
Fuel Used: 28,557lbs
Avg. Fuel Used: 28,557lbs/flt
Fuel Expense: $29,985
Avg. Fuel Expense: $29,985
Avg. Fuel Cost: $1.05/lbs
Total Gross Income: $240,627
Pilot Pay: $149
Total Expenses: $26,040
Total Revenue: $184,059
Average Revenue: $240,626.88